Archival Weather

Chicago O'Hare International

Chicago, Illinois (KORD)

Report from: Saturday, March 18, 2023 3:51 AM CDT
Current time: Wednesday, May 29, 2024 4:47 AM CDT

Current weather – Weather history – Daily summaries
Weather forecast

Temperature-7.8°C (18.0°F)
Wind chill-17.0°C (1.3°F)
Dew point-14.4°C (6.1°F)
Winds 18 kts (9.3 m/s, 20.7 mph) West (270°)
Wind gusts 31 kts (15.9 m/s, 35.7 mph)
Peak wind 31 kts (15.9 m/s, 35.7 mph) West (280°) at 08:45
Visibility10 mi. (16.1 km)
Clouds Scattered clouds 3,100 ft. (945 m)
Ceiling: Broken clouds 4,300 ft. (1,311 m)
Altimeter29.88 in.Hg (1012 mB)
Relative humidity59 %
Density altitude-2,788 ft. (-850 m)
Sea-level pressure101.3 kPa (1013 mB, 29.91 in.Hg)
Remarks Automated weather observing station with precipitation discriminator
Pressure falling more quickly
Flight conditions Visual Meteorological Conditions
Raw dataKORD 180851Z 27018G31KT 10SM SCT031 BKN043 M08/M14 A2988 RMK AO2 PK WND 28031/0845 SLP129 T10781144 58002
An error has occurred. This application may no longer respond until reloaded. Reload 🗙